Bookmark and Share
Track history (hours):
 

Bornholm

Last reported at 2014-Apr-18 12:32 UTC. Time now 2014-Apr-18 13:10 UTC.
Position N 43°24' E 004°58'.

Length 118 m; draft 5 m.

Type: Cargo ship. MMSI: 212521000.

NotesDate/timePositionNaut miles runAvg speedWind from/ knotsBaromVisibWave heightAir tempDewpointWater temp
2014-Apr-18 12:32N 43°24' E 004°58'0 0.0
2014-Apr-18 11:32N 43°24' E 004°58'0 0.0
2014-Apr-18 10:32N 43°24' E 004°58'0 0.0
2014-Apr-18 09:32N 43°24' E 004°58'0 0.0
2014-Apr-18 08:32N 43°24' E 004°58'0 0.0
2014-Apr-18 07:32N 43°24' E 004°58'0 0.1
2014-Apr-18 06:32N 43°24' E 004°58'0 0.0
2014-Apr-18 05:32N 43°24' E 004°58'0 0.0
2014-Apr-18 04:32N 43°24' E 004°58'0 0.0
2014-Apr-18 03:32N 43°24' E 004°58'0 0.0
2014-Apr-18 02:32N 43°24' E 004°58'0 0.0
2014-Apr-18 01:32N 43°24' E 004°58'0 0.0
2014-Apr-18 00:32N 43°24' E 004°58'0 0.0
2014-Apr-17 23:32N 43°24' E 004°58'0 0.0
2014-Apr-17 22:32N 43°24' E 004°58'0 0.0
2014-Apr-17 21:32N 43°24' E 004°58'0 0.0
2014-Apr-17 20:32N 43°24' E 004°58'0 0.0
2014-Apr-17 19:32N 43°24' E 004°58'0 0.0
2014-Apr-17 18:32N 43°24' E 004°58'0 0.0
2014-Apr-17 17:32N 43°24' E 004°58'0 0.0
2014-Apr-17 16:32N 43°24' E 004°58'0 0.0
2014-Apr-17 15:32N 43°24' E 004°58'0 0.0
2014-Apr-17 14:32N 43°24' E 004°58'0 0.0
2014-Apr-17 13:32N 43°24' E 004°58'0 0.0
2014-Apr-17 12:32N 43°24' E 004°58'0 0.0
2014-Apr-17 11:32N 43°24' E 004°58'0 0.0
2014-Apr-17 10:32N 43°24' E 004°58'0 0.1
2014-Apr-17 09:32N 43°24' E 004°58'0 0.1
2014-Apr-17 08:32N 43°24' E 004°58'0 0.1
2014-Apr-17 07:33N 43°24' E 004°58'10 9.8
2014-Apr-17 06:33N 43°14' E 005°02'1212.1
2014-Apr-17 05:33N 43°09' E 005°16'1312.7
2014-Apr-17 04:33N 43°05' E 005°33'1312.8
2014-Apr-17 03:33N 43°00' E 005°49'1312.9
2014-Apr-17 02:34N 42°56' E 006°06'1313.4
2014-Apr-17 01:33N 42°57' E 006°24'1313.4
2014-Apr-17 00:33N 43°01' E 006°42'1514.5
2014-Apr-16 23:33N 43°10' E 006°57'1514.2
2014-Apr-16 22:30N 43°20' E 007°13'1314.1
2014-Apr-16 21:33N 43°28' E 007°28'5914.1
2014-Apr-16 17:21N 44°05' E 008°32'1113.5
2014-Apr-16 16:31N 44°11' E 008°44'1313.2
2014-Apr-16 15:33N 44°19' E 008°59'4 4.2
2014-Apr-16 14:32N 44°22' E 009°03'0 0.0
2014-Apr-16 13:29N 44°22' E 009°03'0 0.0
2014-Apr-16 10:17N 44°22' E 009°03'0 0.1
2014-Apr-16 09:17N 44°22' E 009°03'0 0.0
2014-Apr-16 08:32N 44°22' E 009°03'0 0.0
2014-Apr-16 07:32N 44°22' E 009°03'0 0.0
2014-Apr-16 05:11N 44°22' E 009°03'0 0.0
2014-Apr-16 04:29N 44°22' E 009°03'0 0.1
2014-Apr-16 03:32N 44°22' E 009°03'0 0.0
2014-Apr-16 02:29N 44°22' E 009°03'0 0.1
2014-Apr-16 01:29N 44°22' E 009°03'0 0.1
2014-Apr-16 00:26N 44°22' E 009°03'0 0.0
2014-Apr-15 23:32N 44°22' E 009°03'0 0.0
2014-Apr-15 20:23N 44°22' E 009°03'0 0.0
2014-Apr-15 19:26N 44°22' E 009°03'0 0.0
2014-Apr-15 18:11N 44°22' E 009°03'0 0.0
2014-Apr-15 17:23N 44°22' E 009°03'0 0.1
2014-Apr-15 16:26N 44°22' E 009°03'0 0.0
2014-Apr-15 15:23N 44°22' E 009°03'0 0.1
2014-Apr-15 14:29N 44°22' E 009°03'2 0.8
2014-Apr-15 12:34N 44°22' E 009°01'6 5.8
2014-Apr-15 11:34N 44°24' E 008°53'0 0.0
2014-Apr-15 10:31N 44°24' E 008°53'0 0.0
2014-Apr-15 07:31N 44°24' E 008°53'0 0.0
2014-Apr-15 06:31N 44°24' E 008°53'0 0.0
2014-Apr-15 05:31N 44°24' E 008°53'0 0.0
2014-Apr-15 01:31N 44°24' E 008°53'0 0.0
2014-Apr-15 00:31N 44°24' E 008°53'0 0.0
2014-Apr-14 23:31N 44°24' E 008°53'0 0.0
2014-Apr-14 22:31N 44°24' E 008°53'0 0.0
2014-Apr-14 20:31N 44°24' E 008°53'3 2.7
2014-Apr-14 19:34N 44°23' E 008°57'5 5.4
2014-Apr-14 18:34N 44°19' E 009°01'1211.8
2014-Apr-14 17:34N 44°19' E 008°44'1010.4
2014-Apr-14 16:33N 44°19' E 008°30'0 0.0
2014-Apr-14 10:31N 44°19' E 008°30'40 3.4
2014-Apr-13 22:33N 43°43' E 008°04'10 9.7
2014-Apr-13 21:30N 43°36' E 007°53'9 9.6
2014-Apr-13 20:33N 43°30' E 007°44'10 9.5
2014-Apr-13 19:33N 43°24' E 007°34'10912.1
2014-Apr-13 10:33N 42°10' E 005°45'1312.9
2014-Apr-13 09:33N 42°01' E 005°32'1312.3
2014-Apr-13 08:29N 41°53' E 005°19'7813.1
2014-Apr-13 02:34N 41°01' E 004°02'1414.3
2014-Apr-13 01:33N 40°51' E 003°48'1413.8
2014-Apr-13 00:33N 40°42' E 003°34'1313.2
2014-Apr-12 23:33N 40°33' E 003°21'1313.4
2014-Apr-12 22:33N 40°24' E 003°08'1313.3
2014-Apr-12 21:33N 40°15' E 002°55'1313.3
2014-Apr-12 20:33N 40°06' E 002°42'1313.2
2014-Apr-12 19:33N 39°57' E 002°29'1312.6
2014-Apr-12 18:33N 39°49' E 002°17'1312.6
2014-Apr-12 17:33N 39°41' E 002°05'1313.2
2014-Apr-12 16:33N 39°32' E 001°52'1212.1
2014-Apr-12 15:33N 39°24' E 001°41'1312.7
2014-Apr-12 14:33N 39°15' E 001°29'1313.0
2014-Apr-12 13:33N 39°06' E 001°16'1313.0
2014-Apr-12 12:33N 38°57' E 001°04'10812.0
2014-Apr-12 03:33N 37°36' W 000°28'23812.3
2014-Apr-11 08:10N 36°01' W 005°01'914.3
2014-Apr-11 07:33N 35°60' W 005°11'1515.1
2014-Apr-11 06:33N 35°57' W 005°30'1313.2
2014-Apr-11 05:33N 35°55' W 005°46'1312.6
2014-Apr-11 04:31N 35°54' W 006°02'8812.7
2014-Apr-10 21:33N 36°15' W 007°48'3812.4
2014-Apr-10 18:30N 36°25' W 008°33'1212.0
2014-Apr-10 17:30N 36°28' W 008°47'8911.3
2014-Apr-10 09:33N 37°43' W 009°49'2612.5
2014-Apr-10 07:30N 38°08' W 009°57'1212.6
2014-Apr-10 06:33N 38°20' W 010°00'  

Dump ship's entire track history

sailing weather and tide predictions

Bornholm — C4KF2 — position and weather